Time;durP1;ratioP1;P1;durP2;ratioP2;P2;SDS_P1;SDS_P2;PMS_P1;PMS_P2;Temp;Humidity;BMP_temperature;BMP_pressure;BME280_temperature;BME280_humidity;BME280_pressure;Samples;Min_cycle;Max_cycle;Signal;HPM_P1;HPM_P2
2022/10/05 00:01:48;;;;;;;20.00;7.97;;;9.10;99.90;;;;;;5049872;28;20453;-63
2022/10/05 00:04:21;;;;;;;12.00;6.75;;;9.10;99.90;;;;;;5032866;28;20144;-63
2022/10/05 00:06:55;;;;;;;16.10;7.30;;;9.10;99.90;;;;;;5041983;28;20543;-63
2022/10/05 00:09:21;;;;;;;16.13;6.88;;;9.10;99.90;;;;;;5030574;28;20040;-62
2022/10/05 00:11:48;;;;;;;13.68;7.30;;;9.00;99.90;;;;;;5039058;28;20466;-62
2022/10/05 00:14:30;;;;;;;14.55;7.50;;;9.00;99.90;;;;;;5048597;28;20025;-62
2022/10/05 00:16:56;;;;;;;24.75;7.40;;;9.00;99.90;;;;;;5043220;28;20028;-62
2022/10/05 00:19:29;;;;;;;11.70;6.32;;;8.90;99.90;;;;;;5048145;28;20029;-62
2022/10/05 00:22:04;;;;;;;17.27;6.97;;;8.90;99.90;;;;;;5049165;28;20052;-62
2022/10/05 00:24:30;;;;;;;11.45;7.10;;;8.90;99.90;;;;;;5047595;28;20033;-62
2022/10/05 00:27:00;;;;;;;14.18;7.22;;;8.90;99.90;;;;;;5048094;28;20029;-63
2022/10/05 00:29:26;;;;;;;19.95;8.10;;;8.80;99.90;;;;;;5048101;28;20029;-63
2022/10/05 00:31:51;;;;;;;16.63;6.82;;;8.80;99.90;;;;;;5047921;28;20032;-62
2022/10/05 00:34:17;;;;;;;13.95;7.68;;;8.80;99.90;;;;;;5022547;28;20073;-62
2022/10/05 00:36:43;;;;;;;14.18;8.52;;;8.80;99.90;;;;;;5047200;28;20025;-62
2022/10/05 00:39:09;;;;;;;12.95;6.88;;;8.80;99.90;;;;;;5048991;28;20017;-62
2022/10/05 00:42:06;;;;;;;16.40;7.82;;;8.80;99.90;;;;;;5045345;28;20395;-62
2022/10/05 00:44:40;;;;;;;18.85;7.97;;;8.80;99.90;;;;;;5044795;28;20124;-62
2022/10/05 00:47:33;;;;;;;17.65;8.80;;;8.90;99.90;;;;;;5044735;28;20435;-62
2022/10/05 00:50:16;;;;;;;16.73;8.88;;;8.90;99.90;;;;;;5054250;22;20046;-65
2022/10/05 00:53:00;;;;;;;17.95;7.80;;;8.80;99.90;;;;;;5022509;28;20025;-65
2022/10/05 00:55:53;;;;;;;18.10;7.95;;;8.80;99.90;;;;;;5025375;28;20116;-64
2022/10/05 00:58:45;;;;;;;18.80;8.70;;;8.80;99.90;;;;;;5025012;28;20025;-66
2022/10/05 01:01:49;;;;;;;23.30;9.93;;;8.80;99.90;;;;;;4986524;28;20038;-67
2022/10/05 01:04:55;;;;;;;20.25;8.05;;;8.80;99.90;;;;;;4975357;28;20042;-64
2022/10/05 01:07:42;;;;;;;21.52;8.05;;;8.90;99.90;;;;;;4991482;28;20050;-64
2022/10/05 01:10:29;;;;;;;22.30;9.82;;;8.90;99.90;;;;;;5004440;28;20034;-63
2022/10/05 01:13:29;;;;;;;21.33;8.18;;;8.80;99.90;;;;;;5002636;28;20033;-65
2022/10/05 01:16:16;;;;;;;21.02;8.35;;;8.80;99.90;;;;;;5005050;28;20090;-64
2022/10/05 01:19:02;;;;;;;18.73;9.75;;;8.80;99.90;;;;;;5009090;28;20026;-58
2022/10/05 01:21:36;;;;;;;14.43;8.23;;;8.80;99.90;;;;;;5009031;28;20022;-60
2022/10/05 01:24:31;;;;;;;18.65;9.00;;;8.80;99.90;;;;;;5002805;28;20272;-58
2022/10/05 01:27:30;;;;;;;21.52;9.63;;;8.90;99.90;;;;;;5004794;28;20496;-65
2022/10/05 01:30:07;;;;;;;12.98;7.63;;;8.90;99.90;;;;;;5005423;28;20116;-61
2022/10/05 01:32:59;;;;;;;18.42;7.68;;;8.90;99.90;;;;;;4986513;28;20029;-64
2022/10/05 01:35:49;;;;;;;14.35;7.40;;;8.90;99.90;;;;;;5004210;28;20032;-63
2022/10/05 01:38:31;;;;;;;16.08;8.52;;;8.90;99.90;;;;;;5002208;28;20041;-64
2022/10/05 01:41:22;;;;;;;14.80;8.45;;;8.80;99.90;;;;;;5004515;28;20049;-63
2022/10/05 01:44:36;;;;;;;15.38;8.50;;;8.90;99.90;;;;;;5003195;28;20054;-64
2022/10/05 01:47:28;;;;;;;12.75;7.38;;;8.90;99.90;;;;;;5001394;28;20048;-60
2022/10/05 01:50:03;;;;;;;20.58;7.97;;;8.80;99.90;;;;;;5005051;28;20052;-65
2022/10/05 01:52:51;;;;;;;20.55;8.32;;;8.90;99.90;;;;;;5006636;28;20030;-65
2022/10/05 01:55:30;;;;;;;20.77;9.13;;;8.80;99.90;;;;;;5006523;28;20026;-61
2022/10/05 01:58:18;;;;;;;17.55;8.35;;;8.90;99.90;;;;;;5005415;28;20038;-57
2022/10/05 02:01:03;;;;;;;19.73;8.85;;;8.90;99.90;;;;;;5007690;28;20026;-60
2022/10/05 02:03:36;;;;;;;16.92;8.25;;;8.80;99.90;;;;;;5005550;28;20519;-63
2022/10/05 02:06:10;;;;;;;19.63;9.10;;;8.90;99.90;;;;;;4989840;28;20041;-63
2022/10/05 02:08:42;;;;;;;15.10;7.38;;;8.90;99.90;;;;;;5006697;28;20362;-62
2022/10/05 02:11:11;;;;;;;17.83;9.57;;;8.90;99.90;;;;;;4987426;28;20054;-65
2022/10/05 02:13:47;;;;;;;18.85;8.40;;;8.90;99.90;;;;;;5008465;28;20033;-64
2022/10/05 02:16:20;;;;;;;20.90;8.98;;;8.90;99.90;;;;;;5009245;28;20025;-64
2022/10/05 02:18:55;;;;;;;23.55;8.85;;;8.80;99.90;;;;;;5010671;28;20038;-64
2022/10/05 02:21:22;;;;;;;19.50;8.93;;;8.80;99.90;;;;;;5012417;28;20086;-63
2022/10/05 02:23:51;;;;;;;22.67;8.45;;;8.80;99.90;;;;;;5011635;28;20026;-64
2022/10/05 02:26:18;;;;;;;19.17;8.75;;;8.70;99.90;;;;;;5011748;28;20510;-63
2022/10/05 02:28:44;;;;;;;20.85;8.80;;;8.70;99.90;;;;;;5011418;28;20515;-64
2022/10/05 02:31:14;;;;;;;14.25;7.72;;;8.70;99.90;;;;;;4991858;28;20025;-64
2022/10/05 02:33:40;;;;;;;20.52;8.43;;;8.70;99.90;;;;;;4996544;28;20444;-64
2022/10/05 02:36:28;;;;;;;16.05;8.95;;;8.60;99.90;;;;;;5010476;28;20121;-64
2022/10/05 02:39:38;;;;;;;18.67;8.75;;;8.60;99.90;;;;;;5008936;28;20492;-66
2022/10/05 02:42:15;;;;;;;18.15;8.02;;;8.60;99.90;;;;;;4951031;28;20075;-65
2022/10/05 02:45:17;;;;;;;19.73;8.65;;;8.60;99.90;;;;;;5003133;28;20029;-64
2022/10/05 02:47:52;;;;;;;15.65;8.32;;;8.60;99.90;;;;;;5009829;28;20551;-65
2022/10/05 02:50:51;;;;;;;16.02;8.18;;;8.60;99.90;;;;;;5008199;28;20625;-67
2022/10/05 02:53:19;;;;;;;14.85;9.05;;;8.50;99.90;;;;;;5006390;28;20037;-66
2022/10/05 02:55:54;;;;;;;18.02;9.05;;;8.50;99.90;;;;;;5007980;28;20096;-67
2022/10/05 02:58:27;;;;;;;19.27;8.93;;;8.50;99.90;;;;;;5009154;28;20041;-66
2022/10/05 03:01:18;;;;;;;21.13;9.93;;;8.50;99.90;;;;;;5006328;28;20034;-67
2022/10/05 03:04:03;;;;;;;19.55;8.82;;;8.50;99.90;;;;;;5014399;28;20499;-66
2022/10/05 03:06:33;;;;;;;17.00;8.48;;;8.50;99.90;;;;;;5010073;28;20029;-68
2022/10/05 03:09:03;;;;;;;18.08;9.25;;;8.50;99.90;;;;;;5011026;28;20064;-67
2022/10/05 03:11:57;;;;;;;18.00;8.98;;;8.50;99.90;;;;;;5010300;28;20022;-67
2022/10/05 03:14:27;;;;;;;16.98;8.30;;;8.50;99.90;;;;;;5011101;28;20556;-63
2022/10/05 03:17:36;;;;;;;20.60;9.10;;;8.50;99.90;;;;;;5000110;28;20051;-63
2022/10/05 03:20:22;;;;;;;21.85;9.40;;;8.50;99.90;;;;;;4955658;28;20039;-63
2022/10/05 03:22:57;;;;;;;19.95;9.27;;;8.50;99.90;;;;;;4955248;28;20585;-64
2022/10/05 03:25:26;;;;;;;23.48;9.73;;;8.50;99.90;;;;;;4983621;28;20045;-66
2022/10/05 03:27:58;;;;;;;21.70;9.93;;;8.50;99.90;;;;;;5009780;28;20033;-66
2022/10/05 03:30:30;;;;;;;20.75;10.02;;;8.50;99.90;;;;;;5009064;28;20119;-64
2022/10/05 03:33:06;;;;;;;19.08;9.65;;;8.40;99.90;;;;;;5010742;28;20022;-64
2022/10/05 03:35:51;;;;;;;19.67;9.48;;;8.40;99.90;;;;;;5003582;28;20038;-68
2022/10/05 03:38:37;;;;;;;23.10;10.32;;;8.50;99.90;;;;;;5008624;28;20037;-67
2022/10/05 03:41:20;;;;;;;23.05;10.20;;;8.50;99.90;;;;;;5010607;28;20068;-66
2022/10/05 03:43:54;;;;;;;24.55;9.93;;;8.50;99.90;;;;;;5008548;28;20065;-64
2022/10/05 03:46:47;;;;;;;27.13;10.40;;;8.40;99.90;;;;;;4990530;28;20033;-66
2022/10/05 03:49:51;;;;;;;22.13;10.32;;;8.40;99.90;;;;;;5010098;28;20034;-66
2022/10/05 03:52:26;;;;;;;24.40;9.70;;;8.40;99.90;;;;;;4985992;28;20046;-64
2022/10/05 03:55:18;;;;;;;27.30;10.55;;;8.50;99.90;;;;;;5007723;28;20056;-65
2022/10/05 03:57:46;;;;;;;34.42;11.98;;;8.50;99.90;;;;;;5005102;28;20030;-66
2022/10/05 04:00:19;;;;;;;22.52;11.32;;;8.50;99.90;;;;;;5010404;28;20030;-68
2022/10/05 04:03:00;;;;;;;24.58;10.20;;;8.50;99.90;;;;;;5009471;28;20062;-66
2022/10/05 04:05:34;;;;;;;25.67;10.73;;;8.50;99.90;;;;;;5006209;28;20036;-67
2022/10/05 04:08:18;;;;;;;25.10;11.82;;;8.50;99.90;;;;;;5009174;28;20053;-65
2022/10/05 04:10:55;;;;;;;24.27;11.13;;;8.50;99.90;;;;;;5002028;28;20072;-66
2022/10/05 04:13:24;;;;;;;27.95;12.05;;;8.50;99.90;;;;;;5009481;28;20022;-66
2022/10/05 04:16:11;;;;;;;24.77;11.00;;;8.60;99.90;;;;;;5008405;28;20447;-66
2022/10/05 04:18:50;;;;;;;30.05;12.50;;;8.60;99.90;;;;;;5007564;28;20562;-60
2022/10/05 04:21:31;;;;;;;30.15;11.95;;;8.60;99.90;;;;;;5005506;28;20088;-63
2022/10/05 04:24:12;;;;;;;26.90;11.73;;;8.60;99.90;;;;;;4998880;28;20527;-65
2022/10/05 04:26:47;;;;;;;22.05;10.73;;;8.60;99.90;;;;;;5008103;28;20505;-64
2022/10/05 04:29:37;;;;;;;20.45;11.02;;;8.60;99.90;;;;;;5009468;28;20145;-64
2022/10/05 04:32:24;;;;;;;23.95;10.90;;;8.60;99.90;;;;;;5005780;28;20029;-64
2022/10/05 04:35:45;;;;;;;31.08;12.07;;;8.60;99.90;;;;;;5006636;28;20034;-66
2022/10/05 04:38:33;;;;;;;30.05;11.90;;;8.70;99.90;;;;;;4944988;28;20169;-65
2022/10/05 04:41:18;;;;;;;26.63;11.57;;;8.70;99.90;;;;;;4989283;28;20041;-63
2022/10/05 04:44:17;;;;;;;25.55;10.70;;;8.70;99.90;;;;;;5006616;28;20405;-64
2022/10/05 04:47:02;;;;;;;25.73;10.65;;;8.80;99.90;;;;;;5002385;28;20080;-64
2022/10/05 04:49:42;;;;;;;26.75;12.05;;;8.80;99.90;;;;;;5007830;28;20072;-63
2022/10/05 04:52:38;;;;;;;25.33;11.50;;;8.90;99.90;;;;;;5007253;28;20059;-63
2022/10/05 04:55:13;;;;;;;29.52;11.48;;;9.00;99.90;;;;;;5005954;28;20678;-64
2022/10/05 04:57:38;;;;;;;25.48;11.88;;;9.10;99.90;;;;;;5008221;28;20496;-65
2022/10/05 05:00:08;;;;;;;25.55;11.63;;;9.10;99.90;;;;;;5006259;28;20071;-64
2022/10/05 05:03:13;;;;;;;30.05;11.85;;;9.20;99.90;;;;;;5007757;28;20038;-65
2022/10/05 05:05:48;;;;;;;22.75;11.15;;;9.30;99.90;;;;;;5004051;28;20420;-67
2022/10/05 05:08:25;;;;;;;25.58;11.27;;;9.30;99.90;;;;;;5008337;28;20030;-65
2022/10/05 05:11:18;;;;;;;26.88;11.40;;;9.40;99.90;;;;;;5005501;28;20030;-65
2022/10/05 05:14:15;;;;;;;20.55;10.65;;;9.40;99.90;;;;;;5005812;28;20022;-62
2022/10/05 05:16:43;;;;;;;22.90;11.13;;;9.30;99.90;;;;;;5007228;28;20444;-63
2022/10/05 05:19:21;;;;;;;22.17;11.15;;;9.20;99.90;;;;;;5007917;28;20022;-63
2022/10/05 05:22:08;;;;;;;28.70;11.35;;;9.20;99.90;;;;;;5000830;28;20029;-64
2022/10/05 05:24:56;;;;;;;24.38;10.38;;;9.10;99.90;;;;;;4995957;28;20040;-65
2022/10/05 05:27:31;;;;;;;26.67;11.57;;;9.10;99.90;;;;;;5007568;28;20112;-65
2022/10/05 05:30:47;;;;;;;23.10;10.75;;;9.20;99.90;;;;;;5008276;28;20034;-64
2022/10/05 05:33:20;;;;;;;23.95;10.70;;;9.30;99.90;;;;;;4946436;28;20045;-64
2022/10/05 05:36:03;;;;;;;22.00;10.55;;;9.40;99.90;;;;;;4995222;28;20046;-64
2022/10/05 05:38:40;;;;;;;20.13;10.03;;;9.40;99.90;;;;;;5005905;28;20077;-65
2022/10/05 05:41:12;;;;;;;21.35;10.45;;;9.50;99.90;;;;;;4985634;28;20041;-66
2022/10/05 05:44:00;;;;;;;23.92;10.75;;;9.60;99.90;;;;;;5005272;28;20030;-64
2022/10/05 05:46:32;;;;;;;22.02;10.32;;;9.70;99.90;;;;;;5004106;28;20120;-64
2022/10/05 05:49:00;;;;;;;22.70;10.05;;;9.70;99.90;;;;;;5002503;28;20053;-65
2022/10/05 05:51:38;;;;;;;22.10;9.98;;;9.80;99.90;;;;;;5004476;28;20036;-63
2022/10/05 05:54:21;;;;;;;21.67;11.23;;;9.80;99.90;;;;;;5008042;28;20034;-64
2022/10/05 05:56:51;;;;;;;23.85;11.77;;;9.90;99.90;;;;;;4986155;28;20040;-67
2022/10/05 05:59:23;;;;;;;25.48;11.60;;;10.00;99.90;;;;;;5007849;28;20022;-65
2022/10/05 06:02:00;;;;;;;17.48;9.77;;;10.00;99.90;;;;;;5010252;28;20053;-63
2022/10/05 06:04:35;;;;;;;21.23;10.45;;;10.10;99.90;;;;;;5009445;28;20763;-65
2022/10/05 06:07:04;;;;;;;20.45;10.57;;;10.10;99.90;;;;;;5010937;28;20116;-64
2022/10/05 06:09:44;;;;;;;28.33;9.88;;;10.20;99.90;;;;;;5010447;28;20115;-64
2022/10/05 06:12:25;;;;;;;20.17;10.05;;;10.30;99.90;;;;;;5008288;28;20022;-65
2022/10/05 06:15:03;;;;;;;17.90;10.20;;;10.30;99.90;;;;;;5010385;28;20037;-65
2022/10/05 06:17:49;;;;;;;19.63;9.38;;;10.30;99.90;;;;;;5012117;28;20637;-65
2022/10/05 06:20:38;;;;;;;17.08;9.20;;;10.40;99.90;;;;;;5008144;28;20037;-65
2022/10/05 06:23:15;;;;;;;16.80;9.32;;;10.50;99.90;;;;;;5010635;28;20026;-64
2022/10/05 06:25:53;;;;;;;14.65;8.45;;;10.50;99.90;;;;;;4997917;28;20049;-65
2022/10/05 06:28:19;;;;;;;16.60;8.57;;;10.50;99.90;;;;;;5010268;28;20081;-66
2022/10/05 06:30:59;;;;;;;15.65;9.02;;;10.50;99.90;;;;;;5006051;28;20034;-66
2022/10/05 06:33:50;;;;;;;18.00;9.30;;;10.60;99.90;;;;;;5012161;28;20018;-63
2022/10/05 06:36:34;;;;;;;18.80;9.10;;;10.60;99.90;;;;;;5011329;28;20484;-66
2022/10/05 06:39:08;;;;;;;15.13;8.30;;;10.70;99.90;;;;;;5008519;28;20084;-64
2022/10/05 06:42:00;;;;;;;12.65;8.07;;;10.90;99.90;;;;;;5009367;28;20029;-64
2022/10/05 06:44:38;;;;;;;14.05;8.50;;;10.90;99.90;;;;;;5009014;28;20026;-64
2022/10/05 06:47:39;;;;;;;14.73;9.07;;;11.00;99.90;;;;;;5009866;28;20498;-65
2022/10/05 06:50:37;;;;;;;17.25;8.50;;;11.20;99.90;;;;;;4957238;28;20534;-64
2022/10/05 06:53:30;;;;;;;14.77;8.35;;;11.20;99.90;;;;;;4988266;28;20100;-64
2022/10/05 06:56:15;;;;;;;14.55;7.85;;;11.30;99.90;;;;;;5003669;28;20034;-65
2022/10/05 06:58:49;;;;;;;12.88;6.88;;;11.40;99.90;;;;;;5005844;28;20041;-62
2022/10/05 07:01:27;;;;;;;10.98;7.10;;;11.50;99.90;;;;;;5006711;28;20483;-64
2022/10/05 07:04:23;;;;;;;9.85;6.90;;;11.70;99.90;;;;;;5007440;28;20034;-65
2022/10/05 07:06:53;;;;;;;12.38;6.85;;;11.80;99.90;;;;;;5003339;28;20030;-64
2022/10/05 07:09:31;;;;;;;9.27;6.30;;;12.00;99.90;;;;;;5009498;28;20388;-65
2022/10/05 07:12:32;;;;;;;11.55;6.65;;;12.20;99.90;;;;;;5008673;28;20109;-62
2022/10/05 07:15:17;;;;;;;7.40;5.03;;;12.20;99.90;;;;;;5003556;28;20113;-66
2022/10/05 07:17:58;;;;;;;8.13;5.43;;;12.30;99.90;;;;;;5006695;28;20364;-65
2022/10/05 07:20:38;;;;;;;8.73;5.95;;;12.50;99.90;;;;;;5010238;28;20171;-63
2022/10/05 07:23:22;;;;;;;7.82;5.22;;;12.50;99.90;;;;;;5004830;28;20555;-66
2022/10/05 07:25:58;;;;;;;9.80;6.18;;;12.70;99.90;;;;;;5047103;22;20552;-67
2022/10/05 07:28:56;;;;;;;10.98;5.63;;;12.80;99.90;;;;;;5049686;28;20710;-66
2022/10/05 07:31:32;;;;;;;8.70;5.57;;;12.90;99.90;;;;;;5047852;28;20071;-66
2022/10/05 07:34:06;;;;;;;7.47;5.20;;;12.90;99.90;;;;;;5049623;28;20032;-65
2022/10/05 07:39:37;;;;;;;10.63;6.40;;;13.00;99.90;;;;;;5047519;28;20031;-66
2022/10/05 07:42:31;;;;;;;8.95;5.55;;;13.00;99.90;;;;;;5049259;28;20021;-66
2022/10/05 07:45:07;;;;;;;7.82;5.22;;;13.10;99.90;;;;;;5046930;28;20025;-66
2022/10/05 07:47:38;;;;;;;8.98;5.32;;;13.20;99.90;;;;;;5045867;28;20056;-64
2022/10/05 07:50:28;;;;;;;8.82;5.55;;;13.40;99.90;;;;;;5041973;28;20540;-66
2022/10/05 07:53:04;;;;;;;7.40;5.35;;;13.40;99.90;;;;;;5042044;28;20017;-66
2022/10/05 07:55:56;;;;;;;9.10;6.22;;;13.40;99.90;;;;;;5026495;28;20018;-65
2022/10/05 07:58:51;;;;;;;8.27;5.90;;;13.50;99.90;;;;;;5045470;28;20446;-65
2022/10/05 08:01:37;;;;;;;9.40;6.60;;;13.70;99.90;;;;;;5030589;28;20068;-65
2022/10/05 08:04:18;;;;;;;8.80;5.20;;;13.80;99.90;;;;;;5032117;28;20021;-66
2022/10/05 08:06:50;;;;;;;7.80;4.97;;;13.90;99.90;;;;;;5043320;28;20033;-66
2022/10/05 08:09:25;;;;;;;9.23;5.10;;;14.10;99.90;;;;;;5047357;28;20096;-66
2022/10/05 08:11:55;;;;;;;11.15;5.82;;;14.20;99.90;;;;;;5047008;28;20846;-67
2022/10/05 08:14:37;;;;;;;8.43;4.93;;;14.20;99.90;;;;;;5028645;28;20017;-67
2022/10/05 08:17:12;;;;;;;7.53;5.80;;;14.40;99.90;;;;;;5045212;28;20079;-66
2022/10/05 08:19:45;;;;;;;7.28;5.15;;;14.60;99.90;;;;;;5048971;28;20035;-66
2022/10/05 08:22:29;;;;;;;8.50;5.20;;;14.80;99.90;;;;;;5046123;28;20025;-66
2022/10/05 08:24:59;;;;;;;9.60;4.97;;;14.90;99.90;;;;;;5043057;28;20064;-67
2022/10/05 08:27:40;;;;;;;8.35;5.07;;;15.00;99.90;;;;;;5037805;28;20045;-65
2022/10/05 08:30:11;;;;;;;7.43;5.50;;;15.20;99.90;;;;;;5044108;28;20116;-65
2022/10/05 08:32:53;;;;;;;7.40;4.72;;;15.10;99.90;;;;;;5047513;28;20098;-65
2022/10/05 08:35:42;;;;;;;12.18;4.63;;;15.20;99.90;;;;;;5046575;28;20371;-65
2022/10/05 08:38:18;;;;;;;8.50;4.93;;;15.30;99.90;;;;;;5048806;28;20040;-66
2022/10/05 08:41:13;;;;;;;7.88;5.22;;;15.30;99.90;;;;;;5041798;28;20020;-67
2022/10/05 08:44:05;;;;;;;7.28;4.60;;;15.40;99.90;;;;;;5045657;28;20083;-66
2022/10/05 08:46:31;;;;;;;7.20;4.57;;;15.60;99.90;;;;;;5041272;28;20056;-67
2022/10/05 08:49:15;;;;;;;8.48;5.07;;;15.50;99.90;;;;;;5028718;28;20490;-65
2022/10/05 08:52:06;;;;;;;6.75;4.00;;;15.60;99.90;;;;;;5041401;28;20025;-67
2022/10/05 08:54:40;;;;;;;7.75;4.45;;;15.90;99.90;;;;;;5047806;28;20503;-66
2022/10/05 08:57:15;;;;;;;7.60;4.03;;;16.10;99.90;;;;;;5044855;28;20021;-65
2022/10/05 09:00:03;;;;;;;7.55;4.10;;;16.40;99.90;;;;;;5045630;28;20044;-65
2022/10/05 09:02:59;;;;;;;6.68;4.82;;;16.50;99.90;;;;;;5026278;28;20040;-64
2022/10/05 09:05:47;;;;;;;6.18;3.35;;;16.60;99.90;;;;;;5045243;28;20020;-66
2022/10/05 09:08:57;;;;;;;7.18;3.92;;;16.70;99.90;;;;;;5042194;28;20029;-65
2022/10/05 09:11:52;;;;;;;5.65;3.15;;;16.60;99.90;;;;;;5045141;28;20024;-66
2022/10/05 09:14:25;;;;;;;4.63;3.30;;;16.90;99.90;;;;;;5045821;28;20127;-66
2022/10/05 09:17:29;;;;;;;4.13;2.58;;;16.90;99.90;;;;;;5044494;28;20044;-65
2022/10/05 09:20:03;;;;;;;3.40;2.80;;;17.10;99.90;;;;;;4999462;28;20049;-64
2022/10/05 09:22:47;;;;;;;4.35;2.95;;;17.20;99.90;;;;;;5047475;28;20017;-65
2022/10/05 09:25:17;;;;;;;4.25;2.90;;;17.20;99.90;;;;;;5045615;28;20112;-66
2022/10/05 09:28:01;;;;;;;6.07;3.10;;;17.50;99.90;;;;;;5046988;28;20037;-66
2022/10/05 09:30:45;;;;;;;5.25;3.15;;;17.80;99.90;;;;;;5045075;28;20031;-68
2022/10/05 09:33:37;;;;;;;3.97;2.97;;;17.90;99.90;;;;;;5037117;28;20037;-66
2022/10/05 09:36:31;;;;;;;5.30;2.70;;;18.10;99.90;;;;;;5044338;28;20037;-66
2022/10/05 09:39:18;;;;;;;8.52;3.38;;;18.20;99.90;;;;;;5042980;28;20029;-68
2022/10/05 09:42:16;;;;;;;2.78;2.47;;;18.20;99.90;;;;;;5029030;28;20119;-65
2022/10/05 09:44:44;;;;;;;3.67;2.63;;;18.40;99.90;;;;;;5046210;28;20029;-68
2022/10/05 09:47:18;;;;;;;5.35;2.88;;;18.10;99.90;;;;;;5045214;28;20100;-65
2022/10/05 09:49:49;;;;;;;7.15;2.60;;;18.10;99.90;;;;;;5039628;28;20036;-65
2022/10/05 09:52:39;;;;;;;3.38;2.80;;;18.10;99.90;;;;;;5043861;28;20021;-67
2022/10/05 09:55:26;;;;;;;5.60;3.13;;;18.30;99.90;;;;;;5042200;28;20032;-64
2022/10/05 09:58:07;;;;;;;6.32;2.70;;;18.40;99.90;;;;;;5046242;28;20030;-66
2022/10/05 10:00:56;;;;;;;4.68;2.80;;;18.40;99.90;;;;;;5045883;28;20033;-66
2022/10/05 10:03:24;;;;;;;3.85;2.83;;;18.50;99.90;;;;;;5043975;28;20030;-64
2022/10/05 10:06:02;;;;;;;4.50;2.80;;;18.50;99.90;;;;;;5043084;28;20025;-66
2022/10/05 10:09:08;;;;;;;5.25;2.70;;;18.50;99.90;;;;;;5046113;28;20638;-67
2022/10/05 10:11:49;;;;;;;4.18;2.33;;;18.80;99.90;;;;;;5040331;28;20506;-65
2022/10/05 10:14:20;;;;;;;6.00;2.75;;;19.20;99.90;;;;;;5029426;28;20560;-65
2022/10/05 10:17:11;;;;;;;3.53;2.33;;;19.60;99.90;;;;;;5039574;28;20021;-64
2022/10/05 10:20:10;;;;;;;5.72;2.67;;;19.80;99.90;;;;;;5043039;28;20379;-65
2022/10/05 10:22:56;;;;;;;2.65;2.05;;;20.10;99.90;;;;;;5039563;28;20040;-66
2022/10/05 10:25:45;;;;;;;3.03;2.10;;;20.00;99.90;;;;;;5040506;28;20021;-66
2022/10/05 10:28:24;;;;;;;5.60;2.53;;;20.20;99.90;;;;;;5043365;28;20036;-65
2022/10/05 10:31:11;;;;;;;8.82;2.30;;;20.00;99.90;;;;;;5044142;28;20021;-66
2022/10/05 10:34:14;;;;;;;4.05;1.95;;;20.10;99.90;;;;;;5033804;28;20043;-64
2022/10/05 10:36:42;;;;;;;2.90;1.80;;;19.90;99.90;;;;;;5045107;28;20029;-64
2022/10/05 10:39:24;;;;;;;2.88;2.08;;;19.70;99.90;;;;;;5051702;28;20151;-67
2022/10/05 10:41:59;;;;;;;3.20;2.03;;;20.10;99.90;;;;;;5049709;28;21679;-65
2022/10/05 10:44:46;;;;;;;4.10;1.95;;;19.90;99.90;;;;;;5047472;28;20150;-65
2022/10/05 10:47:33;;;;;;;2.60;1.75;;;19.90;99.90;;;;;;5048575;28;20037;-65
2022/10/05 10:50:29;;;;;;;3.70;2.08;;;19.80;99.90;;;;;;5050301;28;20032;-63
2022/10/05 10:53:17;;;;;;;8.45;2.08;;;19.60;99.90;;;;;;5043152;28;20467;-66
2022/10/05 10:55:49;;;;;;;4.43;2.05;;;19.20;99.90;;;;;;5048629;28;20036;-65
2022/10/05 10:58:33;;;;;;;3.25;2.03;;;19.40;99.90;;;;;;5047488;28;20052;-67
2022/10/05 11:01:11;;;;;;;3.03;2.15;;;19.20;99.90;;;;;;5043464;28;20029;-65
2022/10/05 11:03:45;;;;;;;3.08;1.92;;;19.10;99.90;;;;;;5044911;28;20090;-62
2022/10/05 11:06:24;;;;;;;3.47;1.45;;;19.30;99.90;;;;;;5050760;28;20019;-65
2022/10/05 11:09:12;;;;;;;2.30;1.58;;;19.30;99.90;;;;;;5032115;28;20041;-64
2022/10/05 11:12:01;;;;;;;4.55;1.52;;;19.30;99.90;;;;;;5030389;28;20521;-65
2022/10/05 11:15:00;;;;;;;5.15;1.35;;;19.30;99.90;;;;;;5023437;28;20470;-65
2022/10/05 11:17:44;;;;;;;1.92;1.20;;;19.40;99.90;;;;;;5046159;28;20031;-64
2022/10/05 11:20:22;;;;;;;1.90;1.45;;;19.30;99.90;;;;;;5046206;28;20063;-65
2022/10/05 11:22:58;;;;;;;2.88;1.80;;;19.30;99.90;;;;;;5042061;28;20047;-66
2022/10/05 11:25:32;;;;;;;3.28;1.20;;;19.40;99.90;;;;;;5047483;28;20052;-65
2022/10/05 11:28:13;;;;;;;2.10;1.23;;;19.50;99.90;;;;;;5047775;28;20028;-65
2022/10/05 11:31:01;;;;;;;3.30;1.60;;;19.60;99.90;;;;;;5049657;28;20029;-66
2022/10/05 11:33:48;;;;;;;3.30;1.40;;;19.70;99.90;;;;;;5029321;28;20688;-65
2022/10/05 11:36:36;;;;;;;1.98;1.40;;;19.70;99.90;;;;;;5036054;28;20053;-66
2022/10/05 11:39:17;;;;;;;4.35;1.55;;;19.60;99.90;;;;;;5045966;28;20036;-66
2022/10/05 11:42:19;;;;;;;2.10;1.20;;;19.50;99.90;;;;;;5039854;28;20047;-63
2022/10/05 11:45:06;;;;;;;4.57;1.65;;;19.50;99.90;;;;;;5028469;28;20037;-65
2022/10/05 11:47:47;;;;;;;2.63;1.58;;;19.40;99.90;;;;;;5037719;28;20111;-65
2022/10/05 11:50:13;;;;;;;3.45;1.50;;;19.20;99.90;;;;;;5044496;28;20645;-67
2022/10/05 11:52:55;;;;;;;1.98;1.50;;;19.00;99.90;;;;;;5039880;28;20036;-66
2022/10/05 11:55:43;;;;;;;2.25;1.45;;;19.00;99.90;;;;;;5041609;28;20060;-63
2022/10/05 11:58:28;;;;;;;3.55;1.90;;;18.90;99.90;;;;;;5044459;28;20056;-66
2022/10/05 12:01:14;;;;;;;3.58;1.85;;;18.80;99.90;;;;;;5046228;28;20036;-67
2022/10/05 12:04:02;;;;;;;6.70;2.08;;;18.80;99.90;;;;;;5044096;28;20037;-65
2022/10/05 12:07:06;;;;;;;1.77;1.30;;;18.90;99.90;;;;;;5046892;28;20067;-65
2022/10/05 12:10:12;;;;;;;2.58;1.38;;;18.90;99.90;;;;;;5029468;28;20043;-65
2022/10/05 12:12:53;;;;;;;5.07;1.63;;;18.80;99.90;;;;;;5041317;28;20033;-67
2022/10/05 12:15:30;;;;;;;1.75;1.50;;;18.70;99.90;;;;;;5044070;28;20044;-66
2022/10/05 12:18:01;;;;;;;2.03;1.52;;;18.70;99.90;;;;;;5044176;28;20483;-66
2022/10/05 12:20:31;;;;;;;1.58;1.42;;;18.70;99.90;;;;;;5044268;28;20021;-67
2022/10/05 12:23:06;;;;;;;2.85;1.50;;;18.60;99.90;;;;;;5028216;28;20033;-65
2022/10/05 12:25:51;;;;;;;3.20;2.28;;;18.70;99.90;;;;;;5042892;28;20051;-65
2022/10/05 12:28:22;;;;;;;2.00;1.30;;;18.60;99.90;;;;;;5027052;28;20513;-65
2022/10/05 12:31:06;;;;;;;3.45;1.63;;;18.60;99.90;;;;;;5044979;28;20029;-65
2022/10/05 12:33:54;;;;;;;2.38;1.73;;;18.50;99.90;;;;;;5045039;28;20025;-66
2022/10/05 12:36:41;;;;;;;2.00;1.52;;;18.50;99.90;;;;;;5018036;28;20047;-67
2022/10/05 12:39:22;;;;;;;2.47;1.27;;;18.40;99.90;;;;;;5043739;28;20509;-68
2022/10/05 12:42:39;;;;;;;2.25;1.30;;;18.40;99.90;;;;;;5043170;28;20028;-66
2022/10/05 12:45:33;;;;;;;2.88;2.00;;;18.40;99.90;;;;;;5030564;28;20045;-65
2022/10/05 12:48:07;;;;;;;2.53;1.48;;;18.40;99.90;;;;;;5014002;28;20040;-66
2022/10/05 12:50:45;;;;;;;2.60;1.48;;;18.40;99.90;;;;;;5040097;28;20021;-64
2022/10/05 12:53:42;;;;;;;3.10;1.30;;;18.40;99.90;;;;;;5028941;28;20079;-66
2022/10/05 12:56:37;;;;;;;2.08;1.52;;;18.40;99.90;;;;;;5041222;28;20024;-67
2022/10/05 12:59:10;;;;;;;1.90;1.33;;;18.40;99.90;;;;;;4955315;28;20045;-67
2022/10/05 13:01:35;;;;;;;3.57;1.47;;;18.40;99.90;;;;;;5044183;28;20577;-67
2022/10/05 13:04:21;;;;;;;2.20;1.35;;;18.40;99.90;;;;;;5045537;28;20029;-64
2022/10/05 13:07:17;;;;;;;4.70;3.30;;;18.40;99.90;;;;;;5046183;28;20115;-67
2022/10/05 13:09:51;;;;;;;2.05;1.85;;;18.40;99.90;;;;;;5045367;28;20116;-66
2022/10/05 13:12:34;;;;;;;2.58;1.30;;;18.40;99.90;;;;;;5046465;28;20025;-65
2022/10/05 13:15:29;;;;;;;3.15;1.55;;;18.50;99.90;;;;;;5047963;28;20029;-64
2022/10/05 13:18:20;;;;;;;2.47;1.40;;;18.40;99.90;;;;;;5028909;28;20049;-66
2022/10/05 13:20:55;;;;;;;2.65;1.70;;;18.30;99.90;;;;;;5041718;28;20100;-67
2022/10/05 13:23:45;;;;;;;3.60;1.58;;;18.30;99.90;;;;;;5043518;28;20103;-66
2022/10/05 13:26:19;;;;;;;1.88;1.50;;;18.20;99.90;;;;;;5039822;28;20021;-69
2022/10/05 13:29:00;;;;;;;1.85;1.52;;;18.20;99.90;;;;;;5041791;28;20637;-65
2022/10/05 13:31:43;;;;;;;3.10;1.40;;;18.10;99.90;;;;;;5027826;28;20036;-65
2022/10/05 13:34:21;;;;;;;1.67;1.58;;;18.10;99.90;;;;;;5043596;28;20075;-67
2022/10/05 13:37:04;;;;;;;4.80;3.10;;;18.10;99.90;;;;;;5027002;28;20063;-66
2022/10/05 13:39:55;;;;;;;5.15;2.20;;;18.00;99.90;;;;;;5028159;28;20025;-66
2022/10/05 13:42:31;;;;;;;2.30;1.70;;;18.00;99.90;;;;;;5029843;28;20404;-65
2022/10/05 13:45:04;;;;;;;1.65;1.45;;;18.00;99.90;;;;;;5046668;28;20424;-66
2022/10/05 13:47:43;;;;;;;2.10;1.65;;;18.00;99.90;;;;;;5027153;28;20032;-65
2022/10/05 13:50:15;;;;;;;5.10;1.65;;;18.00;99.90;;;;;;5045421;28;20033;-65
2022/10/05 13:52:53;;;;;;;1.65;1.30;;;18.00;99.90;;;;;;5037136;28;20163;-65
2022/10/05 13:55:39;;;;;;;1.63;1.50;;;18.00;99.90;;;;;;5050327;23;20052;-65
2022/10/05 13:58:13;;;;;;;1.40;1.30;;;18.00;99.90;;;;;;5067057;28;20033;-65
2022/10/05 14:00:49;;;;;;;2.75;1.50;;;18.00;99.90;;;;;;5060901;28;20044;-66
2022/10/05 14:03:35;;;;;;;2.45;1.45;;;18.10;99.90;;;;;;5068119;28;20060;-66